createdAt,value
2018-09-30T00:01:04.863Z,9.97
2018-09-30T00:03:35.338Z,10.40
2018-09-30T00:06:05.609Z,10.03
2018-09-30T00:08:36.405Z,9.61
2018-09-30T00:11:06.945Z,8.71
2018-09-30T00:13:37.780Z,8.15
2018-09-30T00:16:08.057Z,8.26
2018-09-30T00:18:42.225Z,7.87
2018-09-30T00:21:12.756Z,7.78
2018-09-30T00:23:48.260Z,7.57
2018-09-30T00:27:27.541Z,7.73
2018-09-30T00:29:58.081Z,7.73
2018-09-30T00:32:28.311Z,7.62
2018-09-30T00:34:58.904Z,8.70
2018-09-30T00:37:31.169Z,9.32
2018-09-30T00:40:02.376Z,9.64
2018-09-30T00:42:32.913Z,9.90
2018-09-30T00:45:03.673Z,10.09
2018-09-30T00:47:34.561Z,10.42
2018-09-30T00:50:05.113Z,9.43
2018-09-30T00:52:35.732Z,8.62
2018-09-30T00:55:06.293Z,8.75
2018-09-30T00:57:36.574Z,9.64
2018-09-30T01:00:08.581Z,9.07
2018-09-30T01:02:59.222Z,8.62
2018-09-30T01:05:31.454Z,9.42
2018-09-30T01:08:01.992Z,10.10
2018-09-30T01:10:32.797Z,10.23
2018-09-30T01:13:03.330Z,10.27
2018-09-30T01:15:34.213Z,10.50
2018-09-30T01:18:05.198Z,10.05
2018-09-30T01:20:35.701Z,10.26
2018-09-30T01:23:06.618Z,10.55
2018-09-30T01:25:37.368Z,10.39
2018-09-30T01:28:07.902Z,9.90
2018-09-30T01:30:39.203Z,10.14
2018-09-30T01:33:09.866Z,10.04
2018-09-30T01:35:42.109Z,10.08
2018-09-30T01:38:12.740Z,10.32
2018-09-30T01:40:43.348Z,10.33
2018-09-30T01:43:13.933Z,10.76
2018-09-30T01:45:44.484Z,10.43
2018-09-30T01:48:15.034Z,9.07
2018-09-30T01:50:45.791Z,9.23
2018-09-30T01:53:16.363Z,9.40
2018-09-30T01:55:47.238Z,8.69
2018-09-30T01:58:17.719Z,7.28
2018-09-30T02:00:48.223Z,7.38
2018-09-30T02:03:18.748Z,6.99
2018-09-30T02:05:49.245Z,7.70
2018-09-30T02:08:20.010Z,7.47
2018-09-30T02:10:50.231Z,7.34
2018-09-30T02:13:20.853Z,7.65
2018-09-30T02:15:52.578Z,8.47
2018-09-30T02:18:23.079Z,8.03
2018-09-30T02:20:53.558Z,8.72
2018-09-30T02:23:24.059Z,8.97
2018-09-30T02:25:54.709Z,8.12
2018-09-30T02:28:24.920Z,7.57
2018-09-30T02:30:56.461Z,7.75
2018-09-30T02:33:26.955Z,7.53
2018-09-30T02:35:57.744Z,8.48
2018-09-30T02:38:28.265Z,9.01
2018-09-30T02:40:59.047Z,9.33
2018-09-30T02:43:29.679Z,9.33
2018-09-30T02:46:00.171Z,9.04
2018-09-30T02:48:30.690Z,8.57
2018-09-30T02:51:01.202Z,8.61
2018-09-30T02:53:33.283Z,8.91
2018-09-30T02:56:03.860Z,8.77
2018-09-30T02:58:34.370Z,9.05
2018-09-30T03:01:04.895Z,9.22
2018-09-30T03:03:35.170Z,9.28
2018-09-30T03:06:10.248Z,9.01
2018-09-30T03:08:46.417Z,8.65
2018-09-30T03:11:16.841Z,8.34
2018-09-30T03:13:47.382Z,8.40
2018-09-30T03:16:18.126Z,8.50
2018-09-30T03:18:48.944Z,8.51
2018-09-30T03:21:19.497Z,8.35
2018-09-30T03:23:50.092Z,8.77
2018-09-30T03:26:21.908Z,9.05
2018-09-30T03:28:52.464Z,9.37
2018-09-30T03:31:23.365Z,8.83
2018-09-30T03:33:53.896Z,8.54
2018-09-30T03:36:24.661Z,8.79
2018-09-30T03:38:55.241Z,8.88
2018-09-30T03:41:25.958Z,8.51
2018-09-30T03:43:56.540Z,7.08
2018-09-30T03:46:27.321Z,8.19
2018-09-30T03:48:57.925Z,8.17
2018-09-30T03:51:28.453Z,7.96
2018-09-30T03:53:58.961Z,8.23
2018-09-30T03:56:29.700Z,7.84
2018-09-30T03:59:00.141Z,7.88
2018-09-30T04:01:30.409Z,7.84
2018-09-30T04:04:00.951Z,7.91
2018-09-30T04:06:31.185Z,7.78
2018-09-30T04:09:01.717Z,7.66
2018-09-30T04:11:31.999Z,7.24
2018-09-30T04:14:02.689Z,6.78
2018-09-30T04:16:33.213Z,6.62
2018-09-30T04:19:03.934Z,6.28
2018-09-30T04:21:34.462Z,6.74
2018-09-30T04:24:09.220Z,7.60
2018-09-30T04:26:40.735Z,7.77
2018-09-30T04:29:11.236Z,7.75
2018-09-30T04:31:41.987Z,7.46
2018-09-30T04:34:12.597Z,8.04
2018-09-30T04:36:42.863Z,8.38
2018-09-30T04:39:13.381Z,7.99
2018-09-30T04:41:44.522Z,8.21
2018-09-30T04:44:15.188Z,7.46
2018-09-30T04:46:46.564Z,7.43
2018-09-30T04:49:17.031Z,7.39
2018-09-30T04:51:47.364Z,7.37
2018-09-30T04:54:18.066Z,7.24
2018-09-30T04:56:48.694Z,7.16
2018-09-30T04:59:19.206Z,7.28
2018-09-30T05:01:49.492Z,7.38
2018-09-30T05:04:19.760Z,7.79
2018-09-30T05:06:50.411Z,7.73
2018-09-30T05:09:20.931Z,7.69
2018-09-30T05:11:52.364Z,7.70
2018-09-30T05:14:23.061Z,7.65
2018-09-30T05:16:53.336Z,7.00
2018-09-30T05:19:23.826Z,7.43
2018-09-30T05:21:54.520Z,7.44
2018-09-30T05:24:25.057Z,7.47
2018-09-30T05:26:55.741Z,7.65
2018-09-30T05:29:26.437Z,7.59
2018-09-30T05:31:57.260Z,7.42
2018-09-30T05:34:27.779Z,7.48
2018-09-30T05:36:58.008Z,8.04
2018-09-30T05:39:28.502Z,7.94
2018-09-30T05:41:59.048Z,7.90
2018-09-30T05:44:30.098Z,8.36
2018-09-30T05:47:00.652Z,8.79
2018-09-30T05:49:30.903Z,8.87
2018-09-30T05:52:01.854Z,8.89
2018-09-30T05:54:32.589Z,8.63
2018-09-30T05:57:02.900Z,8.95
2018-09-30T05:59:33.700Z,9.02
2018-09-30T06:02:04.369Z,9.20
2018-09-30T06:04:34.784Z,8.94
2018-09-30T06:07:05.312Z,8.93
2018-09-30T06:09:35.913Z,9.26
2018-09-30T06:12:06.617Z,9.14
2018-09-30T06:14:37.246Z,9.44
2018-09-30T06:17:07.907Z,9.17
2018-09-30T06:19:38.244Z,9.61
2018-09-30T06:22:08.754Z,10.04
2018-09-30T06:24:39.294Z,10.31
2018-09-30T06:27:09.839Z,10.38
2018-09-30T06:29:40.503Z,10.37
2018-09-30T06:32:11.156Z,10.29
2018-09-30T06:34:41.872Z,9.88
2018-09-30T06:37:12.286Z,10.34
2018-09-30T06:39:42.737Z,9.63
2018-09-30T06:42:13.385Z,9.64
2018-09-30T06:44:44.198Z,9.76
2018-09-30T06:47:14.818Z,10.15
2018-09-30T06:49:45.361Z,9.78
2018-09-30T06:52:16.179Z,9.94
2018-09-30T06:54:46.952Z,9.89
2018-09-30T06:57:17.303Z,10.58
2018-09-30T06:59:47.989Z,10.16
2018-09-30T07:02:19.278Z,9.74
2018-09-30T07:04:50.322Z,10.30
2018-09-30T07:07:21.076Z,10.58
2018-09-30T07:09:51.745Z,10.22
2018-09-30T07:12:22.484Z,10.21
2018-09-30T07:14:52.942Z,11.19
2018-09-30T07:17:38.774Z,11.48
2018-09-30T07:20:09.744Z,11.37
2018-09-30T07:22:41.187Z,11.70
2018-09-30T07:25:11.630Z,11.76
2018-09-30T07:27:42.111Z,11.89
2018-09-30T07:30:12.776Z,12.23
2018-09-30T07:32:43.112Z,12.45
2018-09-30T07:35:13.416Z,12.75
2018-09-30T07:37:44.347Z,12.56
2018-09-30T07:40:15.070Z,12.56
2018-09-30T07:42:45.756Z,12.81
2018-09-30T07:45:16.338Z,12.92
2018-09-30T07:47:46.956Z,13.17
2018-09-30T07:50:17.706Z,13.29
2018-09-30T07:52:48.770Z,13.09
2018-09-30T07:55:19.549Z,13.20
2018-09-30T07:57:50.685Z,13.23
2018-09-30T08:00:22.759Z,12.99
2018-09-30T08:02:53.933Z,12.98
2018-09-30T08:05:24.826Z,13.17
2018-09-30T08:07:57.138Z,13.33
2018-09-30T08:10:28.640Z,13.34
2018-09-30T08:12:59.366Z,13.58
2018-09-30T08:15:30.189Z,13.51
2018-09-30T08:18:01.391Z,13.83
2018-09-30T08:20:32.593Z,13.61
2018-09-30T08:23:03.247Z,13.65
2018-09-30T08:25:33.819Z,13.77
2018-09-30T08:28:04.713Z,14.00
2018-09-30T08:30:36.228Z,13.92
2018-09-30T08:33:07.023Z,14.05
2018-09-30T08:35:37.572Z,13.98
2018-09-30T08:38:13.126Z,13.93
2018-09-30T08:40:48.833Z,14.17
2018-09-30T08:43:19.331Z,14.27
2018-09-30T08:45:49.918Z,13.31
2018-09-30T08:48:20.704Z,14.22
2018-09-30T08:50:51.431Z,14.49
2018-09-30T08:53:22.169Z,14.54
2018-09-30T08:55:53.186Z,14.56
2018-09-30T08:58:24.981Z,14.76
2018-09-30T09:00:55.822Z,15.04
2018-09-30T09:03:27.316Z,15.16
2018-09-30T09:05:57.820Z,15.33
2018-09-30T09:08:28.317Z,15.69
2018-09-30T09:10:58.858Z,15.94
2018-09-30T09:13:29.362Z,16.40
2018-09-30T09:16:00.204Z,19.95
2018-09-30T09:18:30.585Z,24.04
2018-09-30T09:21:01.074Z,23.88
2018-09-30T09:23:31.353Z,26.31
2018-09-30T09:26:01.925Z,27.80
2018-09-30T09:28:32.432Z,26.63
2018-09-30T09:31:03.277Z,27.24
2018-09-30T09:33:33.789Z,27.40
2018-09-30T09:36:06.305Z,24.90
2018-09-30T09:38:36.609Z,26.13
2018-09-30T09:41:07.374Z,28.46
2018-09-30T09:43:37.902Z,30.10
2018-09-30T09:46:08.725Z,28.93
2018-09-30T09:48:39.843Z,29.65
2018-09-30T09:51:10.112Z,28.24
2018-09-30T09:53:40.968Z,28.41
2018-09-30T09:56:11.584Z,24.98
2018-09-30T09:58:42.313Z,26.97
2018-09-30T10:01:13.128Z,28.52
2018-09-30T10:03:43.657Z,29.50
2018-09-30T10:06:15.069Z,28.48
2018-09-30T10:08:45.572Z,28.22
2018-09-30T10:11:16.102Z,27.58
2018-09-30T10:13:46.693Z,26.24
2018-09-30T10:16:17.562Z,25.63
2018-09-30T10:18:47.801Z,26.14
2018-09-30T10:21:18.063Z,25.51
2018-09-30T10:23:48.852Z,26.56
2018-09-30T10:26:19.494Z,26.88
2018-09-30T10:28:49.766Z,27.48
2018-09-30T10:31:20.084Z,25.67
2018-09-30T10:33:50.992Z,26.93
2018-09-30T10:36:21.547Z,26.03
2018-09-30T10:38:51.873Z,25.61
2018-09-30T10:41:22.530Z,24.15
2018-09-30T10:43:53.066Z,21.02
2018-09-30T10:46:23.637Z,20.41
2018-09-30T10:48:54.262Z,19.47
2018-09-30T10:51:24.492Z,19.20
2018-09-30T10:53:55.056Z,19.10
2018-09-30T10:56:25.930Z,19.23
2018-09-30T10:58:56.901Z,19.32
2018-09-30T11:01:27.869Z,19.36
2018-09-30T11:03:58.087Z,19.20
2018-09-30T11:06:28.609Z,19.49
2018-09-30T11:08:59.195Z,19.19
2018-09-30T11:11:29.553Z,18.74
2018-09-30T11:14:00.454Z,19.24
2018-09-30T11:16:30.772Z,19.66
2018-09-30T11:19:01.401Z,19.70
2018-09-30T11:21:31.954Z,20.36
2018-09-30T11:24:03.416Z,20.37
2018-09-30T11:26:33.977Z,20.38
2018-09-30T11:29:04.604Z,20.41
2018-09-30T11:31:35.137Z,20.55
2018-09-30T11:34:05.626Z,20.15
2018-09-30T11:36:36.352Z,20.42
2018-09-30T11:39:09.865Z,20.75
2018-09-30T11:41:40.696Z,20.63
2018-09-30T11:44:11.305Z,20.22
2018-09-30T11:46:42.081Z,20.34
2018-09-30T11:49:12.645Z,20.72
2018-09-30T11:51:44.569Z,20.26
2018-09-30T11:54:15.136Z,19.86
2018-09-30T11:56:45.496Z,20.44
2018-09-30T11:59:16.350Z,20.07
2018-09-30T12:01:46.874Z,20.82
2018-09-30T12:04:17.674Z,21.04
2018-09-30T12:06:47.885Z,20.85
2018-09-30T12:09:18.408Z,21.23
2018-09-30T12:11:48.965Z,21.55
2018-09-30T12:14:19.790Z,21.45
2018-09-30T12:16:50.532Z,21.17
2018-09-30T12:19:21.123Z,20.76
2018-09-30T12:21:51.751Z,20.93
2018-09-30T12:24:22.260Z,20.83
2018-09-30T12:26:52.486Z,21.02
2018-09-30T12:29:22.768Z,20.74
2018-09-30T12:31:53.302Z,21.23
2018-09-30T12:34:23.845Z,21.62
2018-09-30T12:36:54.557Z,21.77
2018-09-30T12:39:25.446Z,21.40
2018-09-30T12:41:56.549Z,21.44
2018-09-30T12:44:27.340Z,21.85
2018-09-30T12:46:58.129Z,21.93
2018-09-30T12:49:28.760Z,21.68
2018-09-30T12:51:59.708Z,21.89
2018-09-30T12:54:30.151Z,21.37
2018-09-30T12:57:00.820Z,21.92
2018-09-30T12:59:31.525Z,22.03
2018-09-30T13:02:02.332Z,21.55
2018-09-30T13:04:32.601Z,21.47
2018-09-30T13:07:03.203Z,21.63
2018-09-30T13:09:33.795Z,20.83
2018-09-30T13:12:04.401Z,20.91
2018-09-30T13:14:35.866Z,21.48
2018-09-30T13:17:06.236Z,21.44
2018-09-30T13:19:36.804Z,21.23
2018-09-30T13:22:07.526Z,21.40
2018-09-30T13:24:39.152Z,21.71
2018-09-30T13:27:09.772Z,21.71
2018-09-30T13:29:40.442Z,21.46
2018-09-30T13:32:10.973Z,20.90
2018-09-30T13:34:41.322Z,21.36
2018-09-30T13:37:11.553Z,21.74
2018-09-30T13:39:42.108Z,21.98
2018-09-30T13:42:12.830Z,22.29
2018-09-30T13:44:43.537Z,21.51
2018-09-30T13:47:15.009Z,21.32
2018-09-30T13:49:45.749Z,21.21
2018-09-30T13:52:16.293Z,21.84
2018-09-30T13:54:47.202Z,21.57
2018-09-30T13:57:17.766Z,21.09
2018-09-30T13:59:48.323Z,20.84
2018-09-30T14:02:18.867Z,20.57
2018-09-30T14:04:49.280Z,20.25
2018-09-30T14:07:20.098Z,20.50
2018-09-30T14:09:50.359Z,20.62
2018-09-30T14:12:20.919Z,20.71
2018-09-30T14:14:51.476Z,20.42
2018-09-30T14:17:21.804Z,20.24
2018-09-30T14:19:52.310Z,20.29
2018-09-30T14:22:23.230Z,20.43
2018-09-30T14:24:53.748Z,20.07
2018-09-30T14:27:24.467Z,20.09
2018-09-30T14:29:55.494Z,20.36
2018-09-30T14:32:26.061Z,19.85
2018-09-30T14:34:56.749Z,19.70
2018-09-30T14:37:27.371Z,19.44
2018-09-30T14:39:57.896Z,19.65
2018-09-30T14:42:28.460Z,19.59
2018-09-30T14:44:59.039Z,19.91
2018-09-30T14:47:30.427Z,19.53
2018-09-30T14:50:00.681Z,19.81
2018-09-30T14:52:31.317Z,19.36
2018-09-30T14:55:01.843Z,19.51
2018-09-30T14:57:32.125Z,19.75
2018-09-30T15:00:02.669Z,19.71
2018-09-30T15:02:33.320Z,19.69
2018-09-30T15:05:04.131Z,19.01
2018-09-30T15:07:34.673Z,18.04
2018-09-30T15:10:05.237Z,18.83
2018-09-30T15:12:36.476Z,18.52
2018-09-30T15:15:08.279Z,18.63
2018-09-30T15:17:38.905Z,18.63
2018-09-30T15:20:09.558Z,18.73
2018-09-30T15:22:40.317Z,18.72
2018-09-30T15:25:10.618Z,18.63
2018-09-30T15:27:41.386Z,18.48
2018-09-30T15:30:11.958Z,18.29
2018-09-30T15:32:47.540Z,18.21
2018-09-30T15:35:17.864Z,18.08
2018-09-30T15:37:48.389Z,18.29
2018-09-30T15:40:19.037Z,15.36
2018-09-30T15:42:49.519Z,18.09
2018-09-30T15:45:19.933Z,17.99
2018-09-30T15:47:50.165Z,17.85
2018-09-30T15:50:20.713Z,17.77
2018-09-30T15:52:51.273Z,17.73
2018-09-30T15:55:22.112Z,17.61
2018-09-30T15:57:52.672Z,17.69
2018-09-30T16:00:23.470Z,17.60
2018-09-30T16:02:54.036Z,17.61
2018-09-30T16:05:24.537Z,17.51
2018-09-30T16:07:54.777Z,17.54
2018-09-30T16:10:25.348Z,17.56
2018-09-30T16:12:56.157Z,17.48
2018-09-30T16:15:26.875Z,17.40
2018-09-30T16:17:57.633Z,17.38
2018-09-30T16:20:27.954Z,17.28
2018-09-30T16:22:58.545Z,17.24
2018-09-30T16:25:29.090Z,16.97
2018-09-30T16:27:59.676Z,16.95
2018-09-30T16:30:29.917Z,16.78
2018-09-30T16:33:00.674Z,16.72
2018-09-30T16:35:30.906Z,16.69
2018-09-30T16:38:01.439Z,16.61
2018-09-30T16:40:31.683Z,16.57
2018-09-30T16:43:01.944Z,16.62
2018-09-30T16:45:32.704Z,16.58
2018-09-30T16:48:03.258Z,16.57
2018-09-30T16:50:34.091Z,16.47
2018-09-30T16:53:04.820Z,16.34
2018-09-30T16:55:35.335Z,16.23
2018-09-30T16:58:06.656Z,16.11
2018-09-30T17:00:37.402Z,16.02
2018-09-30T17:03:07.932Z,15.95
2018-09-30T17:05:38.740Z,15.84
2018-09-30T17:08:09.278Z,15.77
2018-09-30T17:10:39.585Z,15.76
2018-09-30T17:13:10.383Z,15.63
2018-09-30T17:15:40.646Z,15.57
2018-09-30T17:18:11.573Z,15.48
2018-09-30T17:20:41.960Z,15.37
2018-09-30T17:23:13.122Z,15.04
2018-09-30T17:25:47.897Z,15.25
2018-09-30T17:28:18.476Z,15.21
2018-09-30T17:30:49.568Z,15.06
2018-09-30T17:33:20.301Z,15.02
2018-09-30T17:35:50.849Z,14.92
2018-09-30T17:38:21.464Z,14.79
2018-09-30T17:40:52.200Z,14.83
2018-09-30T17:43:22.706Z,14.91
2018-09-30T17:45:53.430Z,14.90
2018-09-30T17:48:24.254Z,14.86
2018-09-30T17:50:55.276Z,15.04
2018-09-30T17:53:25.912Z,14.88
2018-09-30T17:55:56.271Z,14.77
2018-09-30T17:58:26.792Z,14.68
2018-09-30T18:00:57.321Z,14.63
2018-09-30T18:03:27.872Z,14.66
2018-09-30T18:05:58.177Z,14.64
2018-09-30T18:08:28.803Z,14.42
2018-09-30T18:10:59.641Z,14.55
2018-09-30T18:13:30.541Z,14.57
2018-09-30T18:16:01.052Z,14.72
2018-09-30T18:18:31.592Z,14.54
2018-09-30T18:21:02.298Z,14.43
2018-09-30T18:23:32.675Z,14.38
2018-09-30T18:26:03.360Z,14.39
2018-09-30T18:28:33.916Z,14.41
2018-09-30T18:31:04.433Z,14.36
2018-09-30T18:33:34.940Z,14.33
2018-09-30T18:36:05.578Z,14.33
2018-09-30T18:38:36.092Z,14.15
2018-09-30T18:41:07.097Z,14.36
2018-09-30T18:43:37.432Z,14.44
2018-09-30T18:46:08.074Z,14.26
2018-09-30T18:48:39.329Z,14.21
2018-09-30T18:51:09.574Z,14.25
2018-09-30T18:53:40.124Z,14.14
2018-09-30T18:56:11.126Z,14.11
2018-09-30T18:58:42.909Z,13.99
2018-09-30T19:01:13.652Z,13.96
2018-09-30T19:03:44.167Z,13.74
2018-09-30T19:06:14.680Z,13.91
2018-09-30T19:08:45.396Z,14.11
2018-09-30T19:11:15.685Z,14.02
2018-09-30T19:13:45.924Z,14.00
2018-09-30T19:16:16.604Z,13.88
2018-09-30T19:18:47.232Z,14.14
2018-09-30T19:21:17.787Z,14.28
2018-09-30T19:23:48.574Z,14.05
2018-09-30T19:26:19.142Z,14.00
2018-09-30T19:28:49.812Z,14.01
2018-09-30T19:31:20.388Z,13.87
2018-09-30T19:33:50.977Z,13.97
2018-09-30T19:36:21.656Z,13.90
2018-09-30T19:38:52.333Z,13.97
2018-09-30T19:41:22.880Z,13.77
2018-09-30T19:43:53.536Z,13.83
2018-09-30T19:46:24.965Z,14.08
2018-09-30T19:48:55.841Z,14.13
2018-09-30T19:51:26.445Z,14.11
2018-09-30T19:53:57.078Z,14.14
2018-09-30T19:56:27.875Z,14.03
2018-09-30T19:58:58.430Z,13.88
2018-09-30T20:01:29.276Z,13.89
2018-09-30T20:03:59.496Z,13.93
2018-09-30T20:06:29.905Z,13.97
2018-09-30T20:09:00.472Z,13.94
2018-09-30T20:11:31.181Z,13.76
2018-09-30T20:14:01.734Z,13.72
2018-09-30T20:16:32.261Z,13.83
2018-09-30T20:19:02.821Z,13.75
2018-09-30T20:21:33.064Z,13.61
2018-09-30T20:24:03.591Z,13.45
2018-09-30T20:26:34.141Z,13.63
2018-09-30T20:29:04.778Z,13.71
2018-09-30T20:31:35.461Z,13.33
2018-09-30T20:34:05.996Z,13.14
2018-09-30T20:36:36.276Z,13.10
2018-09-30T20:39:07.691Z,13.37
2018-09-30T20:41:38.382Z,13.48
2018-09-30T20:44:09.066Z,13.30
2018-09-30T20:46:39.352Z,13.60
2018-09-30T20:49:09.618Z,13.44
2018-09-30T20:51:40.364Z,13.40
2018-09-30T20:54:10.888Z,13.33
2018-09-30T20:56:42.155Z,13.18
2018-09-30T20:59:12.556Z,13.33
2018-09-30T21:01:43.351Z,13.36
2018-09-30T21:04:13.874Z,13.14
2018-09-30T21:06:45.280Z,13.16
2018-09-30T21:09:17.864Z,13.09
2018-09-30T21:11:48.544Z,13.08
2018-09-30T21:14:19.150Z,13.01
2018-09-30T21:16:49.901Z,12.86
2018-09-30T21:19:20.441Z,12.59
2018-09-30T21:21:50.690Z,12.73
2018-09-30T21:24:20.969Z,12.69
2018-09-30T21:26:51.280Z,12.65
2018-09-30T21:29:21.862Z,12.75
2018-09-30T21:31:52.192Z,12.81
2018-09-30T21:34:22.773Z,13.02
2018-09-30T21:36:53.552Z,13.16
2018-09-30T21:39:24.284Z,13.37
2018-09-30T21:41:54.879Z,13.10
2018-09-30T21:44:25.149Z,13.24
2018-09-30T21:46:55.670Z,13.32
2018-09-30T21:49:26.207Z,13.31
2018-09-30T21:51:56.834Z,13.31
2018-09-30T21:54:27.364Z,13.18
2018-09-30T21:56:58.757Z,13.32
2018-09-30T21:59:29.541Z,13.25
2018-09-30T22:02:00.088Z,13.09
2018-09-30T22:04:30.528Z,13.27
2018-09-30T22:07:01.453Z,13.37
2018-09-30T22:09:31.681Z,13.33
2018-09-30T22:12:02.468Z,13.41
2018-09-30T22:14:33.122Z,13.41
2018-09-30T22:17:03.671Z,13.59
2018-09-30T22:19:34.301Z,13.39
2018-09-30T22:22:04.861Z,13.35
2018-09-30T22:24:35.390Z,13.62
2018-09-30T22:27:06.271Z,13.95
2018-09-30T22:29:37.473Z,13.82
2018-09-30T22:32:07.839Z,13.48
2018-09-30T22:34:39.885Z,13.51
2018-09-30T22:37:10.541Z,13.35
2018-09-30T22:39:41.092Z,13.34
2018-09-30T22:42:11.666Z,12.96
2018-09-30T22:44:42.193Z,12.83
2018-09-30T22:47:12.749Z,13.11
2018-09-30T22:49:43.494Z,13.41
2018-09-30T22:52:14.910Z,13.55
2018-09-30T22:54:45.500Z,13.46
2018-09-30T22:57:16.043Z,13.47
2018-09-30T22:59:46.561Z,13.37
2018-09-30T23:02:17.132Z,13.18
2018-09-30T23:04:47.722Z,13.07
2018-09-30T23:07:17.950Z,13.15
2018-09-30T23:09:48.235Z,13.00
2018-09-30T23:12:18.627Z,13.38
2018-09-30T23:14:49.256Z,13.52
2018-09-30T23:17:19.821Z,13.65
2018-09-30T23:19:50.388Z,13.23
2018-09-30T23:22:22.768Z,13.18
2018-09-30T23:24:53.005Z,13.28
2018-09-30T23:27:23.508Z,13.06
2018-09-30T23:29:54.124Z,12.92
2018-09-30T23:32:24.669Z,12.96
2018-09-30T23:34:55.189Z,12.87
2018-09-30T23:37:26.037Z,13.19
2018-09-30T23:39:56.670Z,13.09
2018-09-30T23:42:27.262Z,13.09
2018-09-30T23:44:58.202Z,13.08
2018-09-30T23:47:28.752Z,12.98
2018-09-30T23:49:59.275Z,12.89
2018-09-30T23:52:29.912Z,13.15
2018-09-30T23:55:00.340Z,13.12
2018-09-30T23:57:30.869Z,13.19
